Time;durP1;ratioP1;P1;durP2;ratioP2;P2;SDS_P1;SDS_P2;PMS_P1;PMS_P2;Temp;Humidity;BMP_temperature;BMP_pressure;BME280_temperature;BME280_humidity;BME280_pressure;Samples;Min_cycle;Max_cycle;Signal;HPM_P1;HPM_P2
2021/05/05 00:01:22;;;;;;;;;;;;;;;26.76;34.13;100716.91;5036057;28;772;-35
2021/05/05 00:03:47;;;;;;;;;;;;;;;26.79;33.87;100703.09;5036429;28;771;-43
2021/05/05 00:06:13;;;;;;;;;;;;;;;26.83;34.12;100708.94;5036244;28;918;-42
2021/05/05 00:08:38;;;;;;;;;;;;;;;26.93;34.15;100704.13;5036475;28;953;-35
2021/05/05 00:11:04;;;;;;;;;;;;;;;26.92;34.06;100704.31;5036587;28;813;-41
2021/05/05 00:13:29;;;;;;;;;;;;;;;26.93;33.99;100709.53;5036557;28;839;-34
2021/05/05 00:15:54;;;;;;;;;;;;;;;26.97;33.77;100697.34;5036124;28;2038;-41
2021/05/05 00:18:19;;;;;;;;;;;;;;;27.05;33.61;100701.00;5018386;28;1053;-41
2021/05/05 00:20:45;;;;;;;;;;;;;;;27.05;33.69;100698.31;5018662;28;1361;-34
2021/05/05 00:23:10;;;;;;;;;;;;;;;27.08;33.42;100698.78;5036034;28;964;-35
2021/05/05 00:25:35;;;;;;;;;;;;;;;27.14;33.29;100700.75;5036372;28;866;-40
2021/05/05 00:28:00;;;;;;;;;;;;;;;27.18;33.44;100692.25;5036080;28;815;-35
2021/05/05 00:30:26;;;;;;;;;;;;;;;27.20;33.42;100691.06;5036054;28;733;-34
2021/05/05 00:32:51;;;;;;;;;;;;;;;27.29;33.50;100688.28;5036261;28;775;-41
2021/05/05 00:35:16;;;;;;;;;;;;;;;27.18;33.68;100685.00;5036231;28;733;-42
2021/05/05 00:37:45;;;;;;;;;;;;;;;27.32;33.40;100680.66;5035909;28;1922;-41
2021/05/05 00:40:11;;;;;;;;;;;;;;;27.37;33.09;100674.69;5034833;28;1079;-34
2021/05/05 00:42:36;;;;;;;;;;;;;;;27.29;33.51;100678.34;5055756;28;824;-41
2021/05/05 00:45:03;;;;;;;;;;;;;;;27.36;33.19;100670.31;5055962;28;772;-33
2021/05/05 00:47:28;;;;;;;;;;;;;;;27.29;33.20;100677.47;5049311;28;1202;-42
2021/05/05 00:49:53;;;;;;;;;;;;;;;26.97;33.84;100667.66;5045217;28;1218;-41
2021/05/05 00:52:19;;;;;;;;;;;;;;;26.94;33.71;100664.47;5046359;28;1277;-35
2021/05/05 00:54:44;;;;;;;;;;;;;;;26.92;33.82;100661.13;5045603;28;1407;-36
2021/05/05 00:57:10;;;;;;;;;;;;;;;26.93;33.96;100660.09;5037534;28;1918;-41
2021/05/05 00:59:35;;;;;;;;;;;;;;;26.87;33.93;100664.38;5017754;28;1347;-42
2021/05/05 01:02:00;;;;;;;;;;;;;;;26.88;34.08;100660.66;5036367;28;855;-42
2021/05/05 01:04:26;;;;;;;;;;;;;;;26.93;33.76;100657.38;5039241;28;756;-38
2021/05/05 01:06:52;;;;;;;;;;;;;;;27.05;33.50;100652.41;5039325;28;622;-34
2021/05/05 01:09:17;;;;;;;;;;;;;;;27.18;33.43;100655.31;5048268;28;944;-41
2021/05/05 01:11:42;;;;;;;;;;;;;;;27.21;32.90;100646.84;5059149;28;851;-41
2021/05/05 01:14:08;;;;;;;;;;;;;;;27.28;32.71;100643.41;5059352;28;784;-40
2021/05/05 01:16:45;;;;;;;;;;;;;;;27.24;33.17;100641.06;5059389;28;1898;-38
2021/05/05 01:19:10;;;;;;;;;;;;;;;27.29;32.98;100637.81;5040156;28;1531;-34
2021/05/05 01:21:35;;;;;;;;;;;;;;;27.32;32.68;100626.63;5059406;28;807;-40
2021/05/05 01:24:01;;;;;;;;;;;;;;;27.34;32.83;100626.44;5059169;28;1033;-40
2021/05/05 01:26:30;;;;;;;;;;;;;;;27.33;33.19;100620.19;5058857;28;1016;-41
2021/05/05 01:28:57;;;;;;;;;;;;;;;27.28;33.40;100619.91;5059787;28;787;-41
2021/05/05 01:31:23;;;;;;;;;;;;;;;27.33;32.86;100625.59;5059101;28;794;-34
2021/05/05 01:33:48;;;;;;;;;;;;;;;27.37;33.03;100626.06;5059076;28;808;-34
2021/05/05 01:36:15;;;;;;;;;;;;;;;27.26;32.96;100622.81;5058999;28;1969;-40
2021/05/05 01:38:41;;;;;;;;;;;;;;;27.26;33.33;100627.38;5058918;28;999;-41
2021/05/05 01:41:06;;;;;;;;;;;;;;;27.34;32.96;100626.44;5058681;28;764;-41
2021/05/05 01:43:31;;;;;;;;;;;;;;;27.30;32.99;100622.44;5059303;28;752;-41
2021/05/05 01:46:22;;;;;;;;;;;;;;;27.29;33.03;100618.91;5059219;28;739;-34
2021/05/05 01:48:47;;;;;;;;;;;;;;;27.31;32.87;100618.72;5058667;28;827;-41
2021/05/05 01:51:13;;;;;;;;;;;;;;;27.32;33.17;100615.00;5058808;28;744;-35
2021/05/05 01:53:39;;;;;;;;;;;;;;;27.38;32.72;100622.31;5058449;28;912;-41
2021/05/05 01:56:04;;;;;;;;;;;;;;;27.37;32.96;100623.38;5058627;28;1909;-41
2021/05/05 01:58:29;;;;;;;;;;;;;;;27.37;32.67;100615.25;5040880;28;1107;-41
2021/05/05 02:00:55;;;;;;;;;;;;;;;27.36;32.96;100619.00;5058476;28;756;-41
2021/05/05 02:03:20;;;;;;;;;;;;;;;27.43;33.16;100619.06;5058491;28;831;-42
2021/05/05 02:05:45;;;;;;;;;;;;;;;27.41;32.76;100621.94;5040707;28;1478;-36
2021/05/05 02:08:10;;;;;;;;;;;;;;;27.41;33.06;100624.66;5058363;28;955;-33
2021/05/05 02:10:36;;;;;;;;;;;;;;;27.45;33.01;100614.31;5058239;28;764;-41
2021/05/05 02:13:01;;;;;;;;;;;;;;;27.40;32.81;100606.78;5058505;28;842;-41
2021/05/05 02:15:26;;;;;;;;;;;;;;;27.37;33.14;100605.31;5058098;28;740;-42
2021/05/05 02:17:52;;;;;;;;;;;;;;;27.41;32.94;100607.63;5057997;28;1937;-42
2021/05/05 02:20:19;;;;;;;;;;;;;;;27.41;32.86;100605.75;5057896;28;1115;-34
2021/05/05 02:22:44;;;;;;;;;;;;;;;27.36;32.95;100614.41;5058250;28;788;-37
2021/05/05 02:25:09;;;;;;;;;;;;;;;27.36;32.88;100598.22;5057988;28;947;-36
2021/05/05 02:27:35;;;;;;;;;;;;;;;27.40;32.94;100609.47;5058206;28;729;-42
2021/05/05 02:30:01;;;;;;;;;;;;;;;27.44;32.99;100613.50;5058107;28;819;-41
2021/05/05 02:32:26;;;;;;;;;;;;;;;27.45;32.89;100608.91;5057737;28;795;-41
2021/05/05 02:34:52;;;;;;;;;;;;;;;27.48;32.86;100611.22;5058352;28;780;-33
2021/05/05 02:37:48;;;;;;;;;;;;;;;27.42;32.82;100609.28;5057961;28;1961;-40
2021/05/05 02:40:13;;;;;;;;;;;;;;;27.38;32.87;100604.28;5025453;28;1137;-39
2021/05/05 02:42:39;;;;;;;;;;;;;;;27.43;32.75;100595.59;5037563;28;872;-41
2021/05/05 02:45:04;;;;;;;;;;;;;;;27.38;32.89;100593.47;5037921;28;854;-41
2021/05/05 02:47:29;;;;;;;;;;;;;;;27.48;32.73;100586.91;5037834;28;927;-36
2021/05/05 02:49:55;;;;;;;;;;;;;;;27.45;32.89;100588.16;5037722;28;792;-42
2021/05/05 02:52:20;;;;;;;;;;;;;;;27.45;32.77;100593.53;5037634;28;768;-35
2021/05/05 02:54:45;;;;;;;;;;;;;;;27.43;32.92;100587.50;5024356;28;933;-41
2021/05/05 02:57:11;;;;;;;;;;;;;;;27.50;32.77;100582.16;5018168;28;1902;-42
2021/05/05 02:59:36;;;;;;;;;;;;;;;27.49;33.14;100585.91;5017744;28;701;-41
2021/05/05 03:02:01;;;;;;;;;;;;;;;27.30;29.77;100582.75;5017560;28;757;-37
2021/05/05 03:04:27;;;;;;;;;;;;;;;26.51;28.45;100576.84;5018065;28;724;-36
2021/05/05 03:06:53;;;;;;;;;;;;;;;26.01;29.25;100569.97;5017554;28;752;-37
2021/05/05 03:09:22;;;;;;;;;;;;;;;25.97;28.83;100567.84;4999562;28;993;-37
2021/05/05 03:11:47;;;;;;;;;;;;;;;25.85;29.12;100576.34;5018032;28;804;-35
2021/05/05 03:14:12;;;;;;;;;;;;;;;25.74;29.08;100574.88;5017352;28;760;-34
2021/05/05 03:16:40;;;;;;;;;;;;;;;25.68;29.24;100571.03;5017321;28;1965;-37
2021/05/05 03:19:06;;;;;;;;;;;;;;;25.38;29.88;100567.28;5026515;28;1016;-34
2021/05/05 03:21:31;;;;;;;;;;;;;;;25.30;29.47;100565.50;5037267;28;759;-34
2021/05/05 03:23:56;;;;;;;;;;;;;;;24.85;30.26;100571.34;5043902;28;972;-33
2021/05/05 03:26:22;;;;;;;;;;;;;;;24.72;30.77;100569.19;5056037;28;863;-35
2021/05/05 03:28:47;;;;;;;;;;;;;;;25.13;30.12;100564.72;5056987;28;822;-37
2021/05/05 03:31:12;;;;;;;;;;;;;;;25.24;29.85;100567.00;5056945;28;866;-37
2021/05/05 03:33:37;;;;;;;;;;;;;;;25.31;30.22;100568.00;5056840;28;811;-34
2021/05/05 03:36:03;;;;;;;;;;;;;;;25.27;30.45;100560.47;5056034;28;1910;-39
2021/05/05 03:38:28;;;;;;;;;;;;;;;25.46;30.50;100561.06;5056111;28;801;-37
2021/05/05 03:40:53;;;;;;;;;;;;;;;25.14;30.66;100556.47;5056540;28;752;-36
2021/05/05 03:43:19;;;;;;;;;;;;;;;24.50;31.42;100563.50;5056882;28;843;-36
2021/05/05 03:45:44;;;;;;;;;;;;;;;23.32;33.58;100569.63;5052371;28;869;-34
2021/05/05 03:48:10;;;;;;;;;;;;;;;23.49;32.89;100572.41;5036579;28;843;-34
2021/05/05 03:50:35;;;;;;;;;;;;;;;23.20;34.06;100566.41;5037007;28;763;-37
2021/05/05 03:53:00;;;;;;;;;;;;;;;19.94;39.95;100572.53;5036706;28;736;-31
2021/05/05 03:55:25;;;;;;;;;;;;;;;21.97;36.83;100568.03;5054969;28;995;-32
2021/05/05 03:57:51;;;;;;;;;;;;;;;22.09;36.76;100571.31;5056039;28;1890;-36
2021/05/05 04:00:17;;;;;;;;;;;;;;;22.76;35.23;100572.72;5056208;28;809;-33
2021/05/05 04:02:42;;;;;;;;;;;;;;;22.78;34.72;100576.09;5038519;28;1140;-35
2021/05/05 04:05:08;;;;;;;;;;;;;;;23.28;34.43;100578.19;5056545;28;836;-37
2021/05/05 04:07:33;;;;;;;;;;;;;;;23.66;33.64;100575.13;5056350;28;844;-35
2021/05/05 04:09:58;;;;;;;;;;;;;;;23.88;32.84;100580.91;5041275;28;996;-35
2021/05/05 04:12:24;;;;;;;;;;;;;;;24.07;32.49;100564.47;5036466;28;707;-42
2021/05/05 04:14:49;;;;;;;;;;;;;;;24.07;32.51;100542.97;5036360;28;752;-43
2021/05/05 04:20:05;;;;;;;;;;;;;;;24.09;32.61;100530.22;5035357;28;1172;-42
2021/05/05 04:22:32;;;;;;;;;;;;;;;24.17;32.50;100540.13;5036272;28;786;-42
2021/05/05 04:24:57;;;;;;;;;;;;;;;24.37;32.33;100547.03;5046342;28;967;-44
2021/05/05 04:27:23;;;;;;;;;;;;;;;24.60;32.10;100551.72;5036029;28;911;-42
2021/05/05 04:29:48;;;;;;;;;;;;;;;24.74;31.69;100551.00;5036354;28;803;-44
2021/05/05 04:32:14;;;;;;;;;;;;;;;24.89;31.27;100553.81;5036456;28;776;-44
2021/05/05 04:34:40;;;;;;;;;;;;;;;24.92;31.33;100561.56;5035896;28;786;-43
2021/05/05 04:37:06;;;;;;;;;;;;;;;24.74;31.67;100567.13;5036166;28;1906;-43
2021/05/05 04:39:34;;;;;;;;;;;;;;;24.37;32.50;100576.59;5050503;28;984;-42
2021/05/05 04:42:00;;;;;;;;;;;;;;;24.17;33.25;100567.00;5059839;28;799;-43
2021/05/05 04:44:25;;;;;;;;;;;;;;;24.52;32.63;100576.78;5060093;28;760;-40
2021/05/05 04:46:57;;;;;;;;;;;;;;;24.46;32.56;100583.66;5059902;28;859;-43
2021/05/05 04:49:22;;;;;;;;;;;;;;;24.32;33.12;100587.88;5059455;28;771;-42
2021/05/05 04:51:47;;;;;;;;;;;;;;;24.56;32.90;100581.63;5059897;28;783;-43
2021/05/05 04:54:12;;;;;;;;;;;;;;;24.94;32.38;100585.66;5051002;28;959;-34
2021/05/05 04:56:38;;;;;;;;;;;;;;;25.07;32.60;100569.78;5039655;28;1953;-43
2021/05/05 04:59:03;;;;;;;;;;;;;;;25.27;32.62;100560.47;5039873;28;752;-42
2021/05/05 05:01:28;;;;;;;;;;;;;;;25.35;32.58;100556.88;5054990;28;1299;-43
2021/05/05 05:03:54;;;;;;;;;;;;;;;25.42;32.78;100555.16;5039985;28;744;-42
2021/05/05 05:06:19;;;;;;;;;;;;;;;25.47;32.94;100568.94;5021688;28;1080;-43
2021/05/05 05:08:44;;;;;;;;;;;;;;;25.56;32.98;100572.41;5039258;28;941;-45
2021/05/05 05:11:10;;;;;;;;;;;;;;;25.68;32.85;100571.03;5039471;28;833;-44
2021/05/05 05:13:35;;;;;;;;;;;;;;;25.73;33.07;100567.81;5039603;28;727;-43
2021/05/05 05:16:00;;;;;;;;;;;;;;;25.74;33.05;100582.94;5039562;28;1898;-35
2021/05/05 05:18:26;;;;;;;;;;;;;;;25.72;33.26;100593.09;5057238;28;1358;-35
2021/05/05 05:20:51;;;;;;;;;;;;;;;25.78;33.37;100595.06;5079372;28;833;-42
2021/05/05 05:23:17;;;;;;;;;;;;;;;25.77;33.47;100600.63;5077957;28;974;-40
2021/05/05 05:25:42;;;;;;;;;;;;;;;25.88;33.31;100607.47;5059261;28;761;-33
2021/05/05 05:28:07;;;;;;;;;;;;;;;25.97;33.25;100611.78;5059565;28;772;-30
2021/05/05 05:30:33;;;;;;;;;;;;;;;25.98;33.55;100612.63;5058789;28;839;-43
2021/05/05 05:32:58;;;;;;;;;;;;;;;26.02;33.53;100606.72;5058859;28;823;-43
2021/05/05 05:35:24;;;;;;;;;;;;;;;26.15;33.47;100603.41;5059090;28;811;-36
2021/05/05 05:37:50;;;;;;;;;;;;;;;26.06;33.46;100609.03;5059241;28;1914;-33
2021/05/05 05:40:17;;;;;;;;;;;;;;;26.17;33.29;100606.75;5041372;28;1041;-44
2021/05/05 05:42:42;;;;;;;;;;;;;;;26.18;33.35;100615.69;5038812;28;835;-42
2021/05/05 05:45:08;;;;;;;;;;;;;;;26.15;33.80;100616.03;5038927;28;783;-43
2021/05/05 05:47:33;;;;;;;;;;;;;;;26.19;33.75;100611.13;5038862;28;745;-41
2021/05/05 05:49:58;;;;;;;;;;;;;;;25.79;34.21;100615.59;5037858;28;830;-42
2021/05/05 05:52:23;;;;;;;;;;;;;;;25.98;34.18;100613.47;5038737;28;831;-40
2021/05/05 05:54:49;;;;;;;;;;;;;;;26.10;33.92;100615.75;5038549;28;926;-34
2021/05/05 05:57:14;;;;;;;;;;;;;;;26.17;33.87;100608.63;5038825;28;1965;-41
2021/05/05 05:59:40;;;;;;;;;;;;;;;26.18;33.89;100596.81;5038741;28;811;-41
2021/05/05 06:02:05;;;;;;;;;;;;;;;26.24;33.92;100601.47;5038755;28;744;-40
2021/05/05 06:04:30;;;;;;;;;;;;;;;26.31;33.74;100598.91;5038598;28;779;-32
2021/05/05 06:06:55;;;;;;;;;;;;;;;26.38;33.79;100602.59;5038559;28;756;-41
2021/05/05 06:09:21;;;;;;;;;;;;;;;26.35;33.95;100612.88;5040493;28;936;-35
2021/05/05 06:11:46;;;;;;;;;;;;;;;26.39;33.77;100606.13;5057946;28;854;-42
2021/05/05 06:14:13;;;;;;;;;;;;;;;26.36;33.99;100611.88;5058409;28;779;-41
2021/05/05 06:19:41;;;;;;;;;;;;;;;26.33;34.18;100596.91;5058088;28;1054;-42
2021/05/05 06:22:06;;;;;;;;;;;;;;;26.41;34.12;100599.53;5058233;28;847;-43
2021/05/05 06:24:31;;;;;;;;;;;;;;;26.43;34.00;100609.28;5046473;28;1002;-42
2021/05/05 06:26:57;;;;;;;;;;;;;;;26.47;33.88;100605.22;5038216;28;798;-42
2021/05/05 06:29:22;;;;;;;;;;;;;;;26.41;34.03;100599.53;5038144;28;744;-29
2021/05/05 06:31:47;;;;;;;;;;;;;;;26.47;34.00;100603.34;5037844;28;839;-42
2021/05/05 06:34:13;;;;;;;;;;;;;;;26.46;34.01;100598.97;5038026;28;736;-42
2021/05/05 06:36:38;;;;;;;;;;;;;;;26.52;34.04;100595.56;5037774;28;1910;-41
2021/05/05 06:39:06;;;;;;;;;;;;;;;26.57;34.01;100591.47;5037671;28;1144;-38
2021/05/05 06:41:31;;;;;;;;;;;;;;;26.60;34.02;100591.09;5037571;28;827;-42
2021/05/05 06:43:58;;;;;;;;;;;;;;;26.57;33.93;100602.25;5037753;28;792;-41
2021/05/05 06:46:23;;;;;;;;;;;;;;;26.60;34.00;100583.84;5037446;28;819;-39
2021/05/05 06:48:48;;;;;;;;;;;;;;;26.57;34.17;100581.53;5037579;28;767;-40
2021/05/05 06:51:14;;;;;;;;;;;;;;;26.59;34.07;100571.38;5037491;28;816;-43
2021/05/05 06:53:39;;;;;;;;;;;;;;;26.58;33.89;100575.09;5037453;28;921;-42
2021/05/05 06:59:07;;;;;;;;;;;;;;;26.68;34.26;100585.63;5037203;28;1280;-41
2021/05/05 07:01:35;;;;;;;;;;;;;;;26.66;34.13;100582.25;5037358;28;834;-45
2021/05/05 07:04:00;;;;;;;;;;;;;;;26.60;33.75;100577.59;5037417;28;790;-42
2021/05/05 07:06:25;;;;;;;;;;;;;;;26.35;34.27;100584.06;5037075;28;973;-43
2021/05/05 07:08:51;;;;;;;;;;;;;;;26.26;34.31;100583.25;5058186;28;987;-45
2021/05/05 07:11:16;;;;;;;;;;;;;;;26.14;34.42;100582.03;5057342;28;843;-43
2021/05/05 07:13:41;;;;;;;;;;;;;;;26.06;34.42;100582.09;5057300;28;803;-41
2021/05/05 07:16:07;;;;;;;;;;;;;;;26.09;34.50;100579.03;5057195;28;1901;-44
2021/05/05 07:18:32;;;;;;;;;;;;;;;26.05;34.62;100583.94;5056776;28;1244;-43
2021/05/05 07:20:58;;;;;;;;;;;;;;;26.06;34.56;100585.59;5057074;28;783;-44
2021/05/05 07:23:24;;;;;;;;;;;;;;;26.09;34.26;100584.44;5055030;28;1007;-38
2021/05/05 07:25:49;;;;;;;;;;;;;;;26.09;34.71;100592.50;5037069;28;1090;-45
2021/05/05 07:28:14;;;;;;;;;;;;;;;26.16;34.40;100583.50;5037080;28;786;-43
2021/05/05 07:30:40;;;;;;;;;;;;;;;26.12;34.17;100581.38;5036680;28;922;-34
2021/05/05 07:33:06;;;;;;;;;;;;;;;26.14;34.41;100582.84;5036926;28;851;-44
2021/05/05 07:35:31;;;;;;;;;;;;;;;26.23;34.17;100586.31;5036693;28;752;-42
2021/05/05 07:51:01;;;;;;;;;;;;;;;26.64;33.16;100574.34;5056190;28;495;-41
2021/05/05 07:53:26;;;;;;;;;;;;;;;26.84;32.97;100583.78;5054173;28;970;-32
2021/05/05 07:55:56;;;;;;;;;;;;;;;26.71;32.40;100579.03;5036383;28;1910;-42
2021/05/05 07:58:22;;;;;;;;;;;;;;;26.74;32.63;100574.06;5036455;28;871;-32
2021/05/05 08:00:47;;;;;;;;;;;;;;;26.83;32.67;100580.22;5036507;28;816;-41
2021/05/05 08:03:12;;;;;;;;;;;;;;;26.80;32.79;100586.00;5036912;28;791;-42
2021/05/05 08:05:37;;;;;;;;;;;;;;;26.84;32.36;100579.19;5036293;28;760;-41
2021/05/05 08:08:03;;;;;;;;;;;;;;;26.86;32.47;100577.16;5036805;28;883;-42
2021/05/05 08:10:28;;;;;;;;;;;;;;;26.77;32.82;100572.88;5055971;28;940;-38
2021/05/05 08:12:54;;;;;;;;;;;;;;;26.82;32.56;100570.47;5055650;28;780;-36
2021/05/05 08:15:20;;;;;;;;;;;;;;;26.72;32.70;100562.66;5056122;28;1461;-39
2021/05/05 08:17:47;;;;;;;;;;;;;;;26.47;33.47;100553.97;5056450;28;1964;-39
2021/05/05 08:20:12;;;;;;;;;;;;;;;26.76;33.18;100553.16;5055396;28;1299;-33
2021/05/05 08:22:37;;;;;;;;;;;;;;;26.95;32.93;100558.19;5056237;28;776;-42
2021/05/05 08:25:03;;;;;;;;;;;;;;;27.04;32.88;100557.09;5040409;28;956;-42
2021/05/05 08:27:28;;;;;;;;;;;;;;;27.09;33.17;100553.84;5036243;28;776;-33
2021/05/05 08:29:54;;;;;;;;;;;;;;;27.11;33.12;100549.09;5036235;28;776;-39
2021/05/05 08:32:19;;;;;;;;;;;;;;;27.04;33.30;100553.56;5036091;28;800;-33
2021/05/05 08:34:45;;;;;;;;;;;;;;;27.05;33.17;100553.38;5036083;28;824;-35
2021/05/05 08:37:10;;;;;;;;;;;;;;;26.93;33.41;100547.56;5036113;28;1978;-42
2021/05/05 08:39:35;;;;;;;;;;;;;;;26.94;33.66;100551.97;5035893;28;1000;-40
2021/05/05 08:42:01;;;;;;;;;;;;;;;26.96;33.57;100555.28;5035792;28;816;-33
2021/05/05 08:44:26;;;;;;;;;;;;;;;27.05;33.47;100547.97;5051611;28;780;-40
2021/05/05 08:46:52;;;;;;;;;;;;;;;26.98;33.55;100547.84;5035879;28;804;-33
2021/05/05 08:49:18;;;;;;;;;;;;;;;27.00;33.66;100550.34;5036037;28;779;-40
2021/05/05 08:51:43;;;;;;;;;;;;;;;26.98;33.58;100541.59;5036037;28;760;-41
2021/05/05 08:54:09;;;;;;;;;;;;;;;26.97;33.94;100538.09;5041604;28;1193;-31
2021/05/05 08:56:37;;;;;;;;;;;;;;;27.02;33.61;100538.41;5035982;28;1969;-40
2021/05/05 08:59:03;;;;;;;;;;;;;;;27.03;33.56;100531.13;5050805;28;803;-32
2021/05/05 09:01:29;;;;;;;;;;;;;;;27.14;33.53;100537.91;5035771;28;831;-40
2021/05/05 09:03:54;;;;;;;;;;;;;;;27.17;33.44;100550.19;5035709;28;862;-41
2021/05/05 09:06:55;;;;;;;;;;;;;;;27.02;33.83;100538.41;5035869;28;748;-41
2021/05/05 09:09:33;;;;;;;;;;;;;;;27.02;33.86;100543.78;4994146;28;1180;-41
2021/05/05 09:11:59;;;;;;;;;;;;;;;27.10;33.88;100542.00;5031252;28;901;-41
2021/05/05 09:14:27;;;;;;;;;;;;;;;27.14;33.85;100536.03;5035638;28;793;-40
2021/05/05 09:16:52;;;;;;;;;;;;;;;27.17;34.23;100537.53;5035633;28;1951;-41
2021/05/05 09:19:17;;;;;;;;;;;;;;;27.25;33.90;100536.59;5051093;28;1135;-37
2021/05/05 09:21:43;;;;;;;;;;;;;;;27.34;33.74;100540.00;5051127;28;808;-42
2021/05/05 09:24:16;;;;;;;;;;;;;;;27.28;33.92;100528.09;5035541;28;1031;-42
2021/05/05 09:26:41;;;;;;;;;;;;;;;27.25;33.72;100536.59;5038714;28;558;-42
2021/05/05 09:29:06;;;;;;;;;;;;;;;27.21;33.68;100530.72;5039157;28;794;-33
2021/05/05 09:31:35;;;;;;;;;;;;;;;27.22;34.10;100523.47;5039449;28;771;-42
2021/05/05 09:34:00;;;;;;;;;;;;;;;27.26;34.18;100517.47;5038752;28;812;-43
2021/05/05 09:36:26;;;;;;;;;;;;;;;27.20;34.01;100520.09;5038959;28;1910;-42
2021/05/05 09:38:51;;;;;;;;;;;;;;;27.16;33.93;100525.03;5038593;28;1023;-39
2021/05/05 09:41:22;;;;;;;;;;;;;;;27.14;33.92;100517.13;5037980;28;935;-42
2021/05/05 09:43:51;;;;;;;;;;;;;;;27.19;33.99;100513.88;5039118;28;756;-42
2021/05/05 09:46:30;;;;;;;;;;;;;;;27.26;34.09;100503.13;5038724;28;800;-43
2021/05/05 09:49:15;;;;;;;;;;;;;;;27.21;34.27;100489.41;5039479;28;870;-44
2021/05/05 09:51:48;;;;;;;;;;;;;;;27.32;33.90;100483.50;5058727;28;756;-39
2021/05/05 09:54:20;;;;;;;;;;;;;;;27.27;33.31;100491.31;5049669;28;976;-45
2021/05/05 09:56:45;;;;;;;;;;;;;;;27.06;33.21;100473.22;5038576;28;1953;-46
2021/05/05 09:59:10;;;;;;;;;;;;;;;27.11;33.19;100473.50;5038693;28;837;-40
2021/05/05 10:01:36;;;;;;;;;;;;;;;26.92;33.72;100474.88;5038481;28;835;-46
2021/05/05 10:04:03;;;;;;;;;;;;;;;26.82;33.68;100473.31;5038641;28;783;-47
2021/05/05 10:06:32;;;;;;;;;;;;;;;26.97;33.59;100475.16;5038601;28;791;-47
2021/05/05 10:08:59;;;;;;;;;;;;;;;26.93;33.76;100469.28;5037969;28;952;-46
2021/05/05 10:11:25;;;;;;;;;;;;;;;26.88;33.84;100464.47;5038103;28;807;-43
2021/05/05 10:13:51;;;;;;;;;;;;;;;26.93;33.63;100471.16;5038467;28;835;-45
2021/05/05 10:16:17;;;;;;;;;;;;;;;26.88;32.99;100469.88;5038149;28;1930;-47
2021/05/05 10:21:26;;;;;;;;;;;;;;;26.83;33.05;100455.25;5038272;28;657;-47
2021/05/05 10:23:52;;;;;;;;;;;;;;;26.89;32.93;100462.63;5043644;28;960;-47
2021/05/05 10:26:18;;;;;;;;;;;;;;;26.76;32.71;100472.19;5058238;28;795;-46
2021/05/05 10:28:44;;;;;;;;;;;;;;;26.81;32.72;100465.41;5057653;28;512;-39
2021/05/05 10:31:15;;;;;;;;;;;;;;;26.87;32.23;100468.19;5057791;28;747;-46
2021/05/05 10:33:41;;;;;;;;;;;;;;;26.84;31.96;100479.34;5058108;28;787;-46
2021/05/05 10:36:30;;;;;;;;;;;;;;;26.90;31.99;100489.41;5056845;28;1967;-36
2021/05/05 10:38:55;;;;;;;;;;;;;;;26.86;31.58;100492.69;5039361;28;1278;-47
2021/05/05 10:41:22;;;;;;;;;;;;;;;26.83;31.70;100499.28;5057851;28;797;-46
2021/05/05 10:43:48;;;;;;;;;;;;;;;26.86;31.78;100493.50;5057674;28;787;-45
2021/05/05 10:46:46;;;;;;;;;;;;;;;26.96;32.79;100504.00;5057796;28;739;-47
2021/05/05 10:49:16;;;;;;;;;;;;;;;26.99;33.15;100492.00;5002597;28;1418;-46
2021/05/05 10:51:44;;;;;;;;;;;;;;;27.07;33.22;100483.84;5057730;28;791;-45
2021/05/05 10:54:09;;;;;;;;;;;;;;;27.08;33.30;100488.19;5057349;28;990;-36
2021/05/05 10:56:35;;;;;;;;;;;;;;;27.16;33.23;100486.44;5057501;28;1898;-41
2021/05/05 10:59:00;;;;;;;;;;;;;;;27.19;33.27;100491.44;5039276;28;1005;-45
2021/05/05 11:01:35;;;;;;;;;;;;;;;27.17;32.90;100491.63;5057388;28;857;-41
2021/05/05 11:04:01;;;;;;;;;;;;;;;27.17;33.23;100494.34;5055490;28;949;-44
2021/05/05 11:06:29;;;;;;;;;;;;;;;27.29;33.29;100485.72;5039330;28;1080;-34
2021/05/05 11:09:19;;;;;;;;;;;;;;;27.31;33.08;100483.69;5057097;28;999;-45
2021/05/05 11:11:45;;;;;;;;;;;;;;;27.28;33.10;100479.47;5056507;28;1211;-45
2021/05/05 11:14:22;;;;;;;;;;;;;;;27.31;33.43;100475.59;5056870;28;1030;-34
2021/05/05 11:17:05;;;;;;;;;;;;;;;27.33;32.98;100477.06;5056998;28;1910;-43
2021/05/05 11:19:43;;;;;;;;;;;;;;;27.27;33.47;100477.81;5056531;28;1243;-41
2021/05/05 11:22:17;;;;;;;;;;;;;;;27.29;33.46;100469.53;5057218;28;1006;-46
2021/05/05 11:24:43;;;;;;;;;;;;;;;27.29;33.41;100466.81;5043710;28;975;-42
2021/05/05 11:27:09;;;;;;;;;;;;;;;27.31;33.58;100456.69;5037048;28;760;-44
2021/05/05 11:29:37;;;;;;;;;;;;;;;27.30;33.30;100452.28;5019238;28;866;-43
2021/05/05 11:32:03;;;;;;;;;;;;;;;27.35;33.22;100445.28;5043225;28;1065;-46
2021/05/05 11:34:29;;;;;;;;;;;;;;;27.05;33.07;100439.97;5056522;28;825;-42
2021/05/05 11:37:00;;;;;;;;;;;;;;;26.77;33.45;100440.66;5056768;28;1961;-42
2021/05/05 11:39:25;;;;;;;;;;;;;;;26.62;32.97;100436.13;5056565;28;987;-37
2021/05/05 11:41:54;;;;;;;;;;;;;;;26.59;33.31;100444.56;5056721;28;831;-42
2021/05/05 11:44:38;;;;;;;;;;;;;;;26.23;33.05;100440.72;5056766;28;704;-42
2021/05/05 11:47:07;;;;;;;;;;;;;;;26.12;32.43;100431.25;5055686;28;843;-42
2021/05/05 11:49:32;;;;;;;;;;;;;;;26.20;32.73;100437.56;5045769;28;807;-35
2021/05/05 11:51:58;;;;;;;;;;;;;;;26.10;32.82;100425.19;5036785;28;772;-40
2021/05/05 11:54:28;;;;;;;;;;;;;;;26.14;32.79;100420.28;5046331;28;972;-40
2021/05/05 11:57:03;;;;;;;;;;;;;;;26.03;32.76;100422.41;5056523;28;1965;-40
2021/05/05 11:59:29;;;;;;;;;;;;;;;26.43;34.26;100421.34;5056631;28;771;-36
2021/05/05 12:01:54;;;;;;;;;;;;;;;26.83;33.37;100425.56;5056104;28;775;-46
2021/05/05 12:04:20;;;;;;;;;;;;;;;26.79;32.03;100433.22;5071923;28;1441;-41
2021/05/05 12:06:46;;;;;;;;;;;;;;;26.67;32.07;100432.88;5056573;28;783;-44
2021/05/05 12:09:25;;;;;;;;;;;;;;;26.60;32.20;100421.97;5047493;28;1010;-34
2021/05/05 12:12:06;;;;;;;;;;;;;;;26.68;32.24;100420.19;5036387;28;748;-46
2021/05/05 12:14:32;;;;;;;;;;;;;;;26.74;32.54;100417.56;5036276;28;772;-33
2021/05/05 12:17:09;;;;;;;;;;;;;;;26.70;32.47;100416.28;5036666;28;1975;-41
2021/05/05 12:19:35;;;;;;;;;;;;;;;26.56;31.76;100414.47;5036372;28;1053;-42
2021/05/05 12:22:10;;;;;;;;;;;;;;;26.45;32.38;100411.19;5036521;28;826;-46
2021/05/05 12:24:35;;;;;;;;;;;;;;;26.29;32.73;100407.63;5036124;28;972;-41
2021/05/05 12:27:05;;;;;;;;;;;;;;;26.17;32.69;100407.25;5036171;28;823;-41
2021/05/05 12:29:31;;;;;;;;;;;;;;;26.08;33.49;100402.97;5035766;28;846;-36
2021/05/05 12:31:57;;;;;;;;;;;;;;;26.13;32.96;100397.03;5036329;28;790;-44
2021/05/05 12:34:22;;;;;;;;;;;;;;;26.34;32.37;100395.50;5036258;28;825;-43
2021/05/05 12:36:48;;;;;;;;;;;;;;;26.37;31.83;100387.88;5036287;28;1914;-40
2021/05/05 12:39:14;;;;;;;;;;;;;;;26.40;32.34;100387.50;5035938;28;964;-43
2021/05/05 12:41:49;;;;;;;;;;;;;;;26.43;32.16;100375.47;5035975;28;823;-37
2021/05/05 12:44:14;;;;;;;;;;;;;;;26.49;32.24;100388.22;5036548;28;752;-37
2021/05/05 12:46:58;;;;;;;;;;;;;;;26.52;31.21;100382.47;5035920;28;768;-43
2021/05/05 12:49:36;;;;;;;;;;;;;;;26.53;31.67;100377.88;5035895;28;834;-44
2021/05/05 12:52:05;;;;;;;;;;;;;;;26.58;31.53;100375.47;5036495;28;794;-39
2021/05/05 12:54:33;;;;;;;;;;;;;;;26.51;32.14;100371.84;5035890;28;955;-43
2021/05/05 12:56:58;;;;;;;;;;;;;;;26.54;31.86;100368.78;5035916;28;1905;-43
2021/05/05 12:59:29;;;;;;;;;;;;;;;26.39;32.13;100360.72;5037647;28;790;-33
2021/05/05 13:02:22;;;;;;;;;;;;;;;26.49;31.80;100358.53;5039652;28;945;-42
2021/05/05 13:04:48;;;;;;;;;;;;;;;26.49;32.32;100347.75;5038957;28;1922;-42
2021/05/05 13:07:28;;;;;;;;;;;;;;;26.57;32.35;100354.91;5039803;28;729;-43
2021/05/05 13:10:22;;;;;;;;;;;;;;;26.52;32.50;100341.16;5039340;28;1008;-41
2021/05/05 13:13:20;;;;;;;;;;;;;;;26.51;32.44;100343.00;5038490;28;1807;-42
2021/05/05 13:19:16;;;;;;;;;;;;;;;26.46;32.57;100337.34;5039448;28;1906;-43
2021/05/05 13:32:49;;;;;;;;;;;;;;;26.04;33.25;100328.91;5039444;28;802;-37
2021/05/05 13:35:21;;;;;;;;;;;;;;;25.95;33.16;100330.00;5005301;28;1229;-38